ADDS METAR Data INFO
IDs: Format: Raw Decoded Include TAF

Data at: 0506 UTC 23 May 2017

KEBG 230455Z AUTO 02003KT 7SM SCT050 BKN100 28/24 A2985 RMK AO2 T02800240
KEBG 230435Z AUTO 10005KT 1/4SM HZ BKN044 OVC090 28/24 A2983 RMK AO2 T02800240
KEBG 230415Z AUTO 08005KT 1SM HZ SCT044 OVC090 28/24 A2984 RMK AO2 VIS 1/4V5 T02830240
KEBG 230355Z AUTO 08003KT 3SM HZ SCT044 SCT050 OVC090 29/24 A2984 RMK AO2 T02850238
KEBG 230335Z AUTO 07004KT 3/4SM HZ OVC042 29/24 A2983 RMK AO2 T02850237
KEBG 230315Z AUTO 06005KT 1/2SM HZ OVC042 29/24 A2982 RMK AO2 VIS 1/4V5 T02850235
KEBG 230255Z AUTO 07005KT 1/2SM HZ SCT040 SCT070 OVC080 29/23 A2982 RMK AO2 T02860234
KEBG 230235Z AUTO 06006KT 5SM HZ SCT060 OVC080 29/23 A2982 RMK AO2 T02870233
KEBG 230215Z AUTO 06006KT 10SM BKN060 OVC070 29/24 A2982 RMK AO2 T02900235
KEBG 230155Z AUTO 08009KT 10SM BKN065 OVC070 30/23 A2981 RMK AO2 T02950232
KEBG 230135Z AUTO 07007KT 10SM OVC065 30/22 A2980 RMK AO2 T02980222
KEBG 230115Z AUTO 07007KT 10SM BKN065 BKN090 30/23 A2979 RMK AO2 T03000225
KEBG 230055Z AUTO 06010KT 10SM BKN090 30/22 A2979 RMK AO2 T03040223
KEBG 230035Z AUTO 05011KT 5SM HZ SCT030 BKN048 OVC090 31/22 A2979 RMK AO2 T03080222
KEBG 230015Z AUTO 05010KT 10SM SCT036 BKN048 OVC080 31/22 A2979 RMK AO2 T03130219
KEBG 222355Z AUTO 03010KT 10SM OVC038 32/22 A2979 RMK AO2 T03150215 10345 20294
KEBG 222335Z AUTO 03009KT 10SM BKN036 BKN043 BKN055 32/22 A2979 RMK AO2 T03160218
KEBG 222315Z AUTO 04010KT 10SM SCT038 SCT047 BKN055 32/22 A2979 RMK AO2 T03190221
KEBG 222255Z AUTO 06012KT 7SM SCT031 BKN037 OVC055 32/22 A2978 RMK AO2 T03200224
KEBG 222235Z AUTO 05011G15KT 360V070 10SM SCT033 BKN041 34/22 A2978 RMK AO2 T03370221
KEBG 222215Z AUTO 02012G17KT 10SM BKN035 BKN041 34/22 A2979 RMK AO2 T03380222
KEBG 222155Z AUTO 02008G15KT 10SM SCT031 BKN039 BKN055 33/22 A2979 RMK AO2 T03330224
KEBG 222135Z AUTO 36009KT 10SM SCT029 SCT095 34/23 A2980 RMK AO2 T03400225
KEBG 222115Z AUTO 03009KT 10SM SCT065 SCT085 34/23 A2980 RMK AO2 T03360227
KEBG 222055Z AUTO 01009KT 10SM SCT075 BKN085 33/23 A2981 RMK AO2 T03260227
KEBG 222035Z AUTO 02009KT 10SM BKN075 BKN085 32/23 A2982 RMK AO2 T03230229
KEBG 222015Z AUTO 36009KT 10SM SCT055 BKN065 OVC085 31/23 A2983 RMK AO2 T03120230
KEBG 221955Z AUTO 01008KT 10SM BKN055 OVC070 31/23 A2984 RMK AO2 T03060231
KEBG 221935Z AUTO 01009KT 10SM BKN055 OVC075 31/23 A2985 RMK AO2 T03090230
KEBG 221915Z AUTO 36008KT 10SM SCT020 SCT036 BKN055 32/23 A2985 RMK AO2 T03150228
KEBG 221855Z AUTO 36009KT 320V020 10SM SCT055 SCT075 SCT085 32/23 A2986 RMK AO2 T03170227
KEBG 221835Z AUTO 34009KT 10SM BKN070 BKN085 30/23 A2986 RMK AO2 T03020229
KEBG 221815Z AUTO 36008KT 10SM SCT036 BKN070 30/23 A2987 RMK AO2 T02990227
KEBG 221755Z AUTO 01010KT 10SM SCT031 SCT037 BKN080 30/23 A2987 RMK AO2 T02980225 10305 20255
KEBG 221735Z AUTO 36011KT 10SM SCT018 BKN028 BKN034 30/23 A2988 RMK AO2 LTG DSNT E T03000225
KEBG 221715Z AUTO 36011G16KT 10SM BKN015 OVC032 29/22 A2989 RMK AO2 T02920223
KEBG 221655Z AUTO 36011G15KT 10SM BKN015 OVC022 29/22 A2990 RMK AO2 LTG DSNT E T02870222
KEBG 221635Z AUTO 36010KT 10SM OVC017 27/22 A2990 RMK AO2 T02710224
KEBG 221615Z AUTO 36011KT 10SM -DZ OVC017 26/23 A2990 RMK AO2 T02570225
KEBG 221555Z AUTO 35009KT 10SM OVC017 26/23 A2991 RMK AO2 T02550225
KEBG 221535Z AUTO 33007KT 7SM RA OVC019 29/23 A2991 RMK AO2 T02850233
KEBG 221515Z AUTO 16006KT 7SM SCT015 BKN020 OVC034 29/24 A2991 RMK AO2 T02920243
KEBG 221455Z AUTO 17006KT 7SM -RA BKN015 OVC022 30/25 A2991 RMK AO2 T02960246
KEBG 221435Z AUTO 14009KT 7SM BKN012 OVC018 29/25 A2991 RMK AO2 T02940252
KEBG 221415Z AUTO 17006KT 7SM BKN010 BKN018 OVC033 29/25 A2991 RMK AO2 T02880252
KEBG 221355Z AUTO 17006KT 5SM HZ BKN010 OVC016 28/25 A2990 RMK AO2 T02820253
KEBG 221335Z AUTO 14004KT 5SM HZ BKN012 BKN018 OVC027 28/25 A2989 RMK AO2 T02800251
KEBG 221315Z AUTO 12004KT 5SM BR SCT017 OVC029 28/26 A2989 RMK AO2 T02750255
KEBG 221255Z AUTO 14004KT 4SM BR SCT019 BKN027 OVC036 27/26 A2989 RMK AO2 T02730255
KEBG 221235Z AUTO 18003KT 4SM BR BKN029 BKN038 OVC070 27/25 A2988 RMK AO2 T02720254
KEBG 221215Z AUTO 18003KT 4SM BR SCT015 BKN029 OVC036 27/25 A2988 RMK AO2 T02690251
KEBG 221155Z AUTO 00000KT 5SM BR SCT015 BKN029 OVC035 27/25 A2988 RMK AO2 P0001 60001 70002 T02690250 10275 20263
KEBG 221135Z AUTO 00000KT 5SM BR SCT013 BKN023 OVC031 27/25 A2989 RMK AO2 P0001 T02700250
KEBG 221115Z AUTO 00000KT 5SM -RA SCT011 BKN029 OVC034 27/25 A2989 RMK AO2 P0001 T02700251
KEBG 221055Z AUTO 00000KT 5SM -DZ SCT011 BKN025 OVC030 27/25 A2990 RMK AO2 T02700251
KEBG 221035Z AUTO 17003KT 5SM -RA SCT013 BKN030 OVC060 27/25 A2988 RMK AO2 T02710251
KEBG 221015Z AUTO 00000KT 5SM DZ SCT013 BKN027 OVC060 27/25 A2989 RMK AO2 T02720250
KEBG 220955Z AUTO 00000KT 5SM BR SCT011 BKN021 OVC042 27/25 A2990 RMK AO2 T02700250
KEBG 220935Z AUTO 00000KT 5SM BR SCT011 BKN024 OVC042 27/25 A2990 RMK AO2 T02690247
KEBG 220915Z AUTO 00000KT 7SM BKN011 BKN014 OVC029 27/25 A2991 RMK AO2 T02730250
KEBG 220855Z AUTO 17004KT 7SM OVC011 27/25 A2991 RMK AO2 T02730251
KEBG 220835Z AUTO 00000KT 7SM OVC011 27/25 A2992 RMK AO2 T02730252
KEBG 220815Z AUTO 00000KT 7SM OVC011 27/25 A2992 RMK AO2 T02740252
KEBG 220755Z AUTO 00000KT 7SM OVC009 27/25 A2992 RMK AO2 T02720253
KEBG 220735Z AUTO 00000KT 5SM BR OVC007 27/25 A2993 RMK AO2 T02680251
KEBG 220715Z AUTO 00000KT 5SM BR OVC009 27/25 A2993 RMK AO2 T02670251
KEBG 220655Z AUTO 00000KT 5SM BR BKN009 OVC016 26/25 A2992 RMK AO2 T02640245
KEBG 220635Z AUTO 00000KT 7SM BKN011 BKN018 27/25 A2992 RMK AO2 T02660247
KEBG 220615Z AUTO 12004KT 5SM BR SCT014 SCT020 SCT070 27/25 A2993 RMK AO2 T02670248
KEBG 220555Z AUTO 17005KT 1/4SM -DZ BKN018 OVC070 27/25 A2994 RMK AO2 VIS M1/4V5 P0001 60001 T02690249 10299 20268 403540262
KEBG 220535Z AUTO 10007KT 4SM RA BKN110 27/25 A2995 RMK AO2 P0001 T02700248
KEBG 220515Z AUTO 05003KT 7SM -RA SCT075 SCT100 BKN120 27/25 A2997 RMK AO2 T02720247
KEBG 220455Z AUTO 09005KT 1 1/4SM HZ SCT018 SCT075 BKN110 27/25 A2997 RMK AO2 T02730245
KEBG 220435Z AUTO 00000KT 2 1/2SM RA SCT016 SCT025 BKN120 28/24 A2997 RMK AO2 T02750244
KEBG 220415Z AUTO 06006KT 7SM -RA BKN014 OVC024 28/24 A2997 RMK AO2 T02800243
KEBG 220355Z AUTO 30003KT 7SM -DZ BKN012 28/24 A2999 RMK AO2 T02780243
KEBG 220335Z AUTO 06013G18KT 4SM -RA SCT012 SCT070 SCT100 28/24 A2989 RMK AO2 LTG DSNT W T02770241
KEBG 220315Z AUTO 09018KT 5SM HZ CLR 28/24 A2988 RMK AO2 LTG DSNT S AND SW T02800240
KEBG 220255Z AUTO 11013KT 4SM HZ CLR 28/24 A2990 RMK AO2 LTG DSNT SW AND NW T02790238
KEBG 220235Z AUTO 09012KT 2SM TSHZ SCT016 BKN110 28/24 A2992 RMK AO2 LTG DSNT SW THRU NW T02810236
KEBG 220215Z AUTO 06007G16KT 4SM VCTSHZ SCT016 BKN110 28/24 A2992 RMK AO2 LTG DSNT ALQS T02820235
KEBG 220155Z AUTO 06012G18KT 4SM TSHZ SCT016 SCT100 28/24 A2991 RMK AO2 LTG DSNT SW THRU N T02820235
KEBG 220135Z AUTO 08014G21KT 7SM VCTS CLR 28/24 A2987 RMK AO2 LTG DSNT W THRU NE T02820235
KEBG 220115Z AUTO 07016G21KT 5SM VCTSHZ CLR 29/23 A2986 RMK AO2 LTG DSNT N E AND W T02850234
KEBG 220055Z AUTO 08012G17KT 5SM HZ CLR 29/23 A2986 RMK AO2 LTG DSNT N AND NW T02870230
KEBG 220035Z AUTO 09014KT 7SM CLR 29/23 A2984 RMK AO2 LTG DSNT N AND NW T02900230
KEBG 220015Z AUTO 09014G19KT 7SM CLR 30/22 A2983 RMK AO2 T02950223
KEBG 212355Z AUTO 09013KT 7SM CLR 30/22 A2984 RMK AO2 LTG DSNT NW T03000223 10354 20300
KEBG 212335Z AUTO 10015KT 5SM HZ CLR 31/22 A2982 RMK AO2 LTG DSNT NW T03060220
KEBG 212315Z AUTO 09013G17KT 2 1/2SM HZ CLR 31/21 A2984 RMK AO2 VIS 1 1/2V5 T03130213
KEBG 212255Z AUTO 10014KT 5SM HZ CLR 32/21 A2983 RMK AO2 T03180211
KEBG 212235Z AUTO 11012KT 7SM CLR 33/21 A2983 RMK AO2 T03260213
KEBG 212215Z AUTO 09015G20KT 3SM HZ CLR 34/21 A2984 RMK AO2 LTG DSNT N T03350212
KEBG 212155Z AUTO 09014G18KT 2 1/2SM HZ CLR 33/21 A2983 RMK AO2 VIS 1 1/4V5 T03290214
KEBG 212135Z AUTO 12013G17KT 2SM HZ SCT043 SCT050 BKN065 33/21 A2985 RMK AO2 VIS 1V4 T03310208
KEBG 212115Z AUTO 10016G19KT 3SM HZ SCT041 BKN050 BKN085 33/21 A2985 RMK AO2 T03340210
KEBG 212055Z AUTO 11014G22KT 3SM HZ SCT041 BKN050 BKN070 35/21 A2985 RMK AO2 T03450209
KEBG 212035Z AUTO 11017G22KT 4SM HZ SCT041 BKN050 BKN060 35/21 A2985 RMK AO2 T03490207
KEBG 212015Z AUTO 10016G22KT 5SM HZ SCT043 BKN049 BKN065 35/21 A2986 RMK AO2 T03450209
KEBG 211955Z AUTO 09018G23KT 2SM HZ BKN048 BKN060 OVC070 35/20 A2986 RMK AO2 T03540199
KEBG 211935Z AUTO 13010KT 4SM HZ BKN044 BKN060 OVC070 35/20 A2988 RMK AO2 T03510195
KEBG 211915Z AUTO 12014KT 2SM HZ BKN042 OVC048 35/20 A2988 RMK AO2 T03460201
KEBG 211855Z AUTO 10013KT 2 1/2SM HZ SCT040 BKN048 BKN055 34/21 A2989 RMK AO2 T03440209
KEBG 211835Z AUTO 11010G17KT 2 1/2SM HZ SCT038 BKN044 BKN065 35/20 A2990 RMK AO2 T03500202
KEBG 211815Z AUTO 12010G14KT 4SM HZ BKN038 BKN046 OVC065 34/21 A2991 RMK AO2 T03360213
KEBG 211755Z AUTO 11011KT 4SM HZ BKN038 BKN046 OVC060 34/21 A2992 RMK AO2 T03390211 10339 20262
KEBG 211735Z AUTO 11013G16KT 3SM HZ SCT038 BKN046 OVC060 34/21 A2992 RMK AO2 T03350210
KEBG 211715Z AUTO 10010KT 2 1/2SM HZ BKN036 OVC048 33/21 A2993 RMK AO2 T03260211


Page loaded:  05:06 UTC  |   10:06 PM Pacific  |   11:06 PM Mountain  |   12:06 AM Central  |   01:06 AM Eastern

 

ADVISORIES

FORECASTS

FORECASTS

OBSERVATIONS

USER TOOLS

ABOUT US